Time;durP1;ratioP1;P1;durP2;ratioP2;P2;SDS_P1;SDS_P2;PMS_P1;PMS_P2;Temp;Humidity;BMP_temperature;BMP_pressure;BME280_temperature;BME280_humidity;BME280_pressure;Samples;Min_cycle;Max_cycle;Signal;HPM_P1;HPM_P2
2022/09/20 00:00:46;;;;;;;10.95;1.27;;;10.40;99.90;;;;;;4978561;28;20114;-71
2022/09/20 00:03:13;;;;;;;3.67;1.30;;;10.40;99.90;;;;;;4978387;28;20027;-73
2022/09/20 00:05:41;;;;;;;5.20;1.23;;;10.30;99.90;;;;;;4978593;28;20031;-72
2022/09/20 00:08:11;;;;;;;16.08;1.27;;;10.30;99.90;;;;;;4978461;28;20012;-72
2022/09/20 00:10:38;;;;;;;8.48;1.67;;;10.30;99.90;;;;;;4978759;28;20090;-71
2022/09/20 00:13:06;;;;;;;2.35;1.10;;;10.30;99.90;;;;;;4977919;28;20413;-70
2022/09/20 00:15:33;;;;;;;2.33;0.68;;;10.30;99.90;;;;;;4978583;28;20092;-71
2022/09/20 00:17:59;;;;;;;2.10;0.82;;;10.30;99.90;;;;;;4978304;28;20038;-72
2022/09/20 00:20:25;;;;;;;5.00;1.33;;;10.20;99.90;;;;;;4978710;28;20436;-72
2022/09/20 00:22:51;;;;;;;9.68;1.65;;;10.30;99.90;;;;;;4961724;28;20554;-70
2022/09/20 00:25:18;;;;;;;4.05;0.95;;;10.20;99.90;;;;;;4975060;28;20027;-71
2022/09/20 00:27:44;;;;;;;8.15;1.35;;;10.20;99.90;;;;;;4975371;28;20022;-72
2022/09/20 00:30:11;;;;;;;8.57;1.05;;;10.20;99.90;;;;;;4975721;28;20475;-74
2022/09/20 00:32:36;;;;;;;6.13;1.10;;;10.20;99.90;;;;;;4974836;28;20039;-73
2022/09/20 00:35:09;;;;;;;5.78;1.15;;;10.20;99.90;;;;;;4976015;28;20039;-72
2022/09/20 00:37:42;;;;;;;4.78;0.82;;;10.20;99.90;;;;;;4975892;28;20026;-72
2022/09/20 00:40:14;;;;;;;1.65;0.52;;;10.20;99.90;;;;;;4975322;28;20491;-72
2022/09/20 00:42:40;;;;;;;7.40;1.08;;;10.20;99.90;;;;;;4975548;28;20027;-72
2022/09/20 00:45:26;;;;;;;4.20;0.98;;;10.20;99.90;;;;;;4975221;28;20023;-72
2022/09/20 00:48:28;;;;;;;3.20;1.00;;;10.30;99.90;;;;;;4974868;28;20035;-72
2022/09/20 00:51:02;;;;;;;4.32;1.30;;;10.30;99.90;;;;;;4927575;28;20035;-71
2022/09/20 00:53:39;;;;;;;7.78;1.27;;;10.20;99.90;;;;;;4975171;28;20042;-72
2022/09/20 00:56:30;;;;;;;6.28;0.88;;;10.20;99.90;;;;;;4974786;28;20433;-73
2022/09/20 00:59:21;;;;;;;3.80;1.05;;;10.20;99.90;;;;;;4967342;28;20524;-71
2022/09/20 01:01:52;;;;;;;1.45;0.80;;;10.20;99.90;;;;;;4974867;28;20026;-71
2022/09/20 01:04:22;;;;;;;1.70;1.02;;;10.30;99.90;;;;;;4975213;28;20042;-70
2022/09/20 01:06:50;;;;;;;2.67;0.77;;;10.30;99.90;;;;;;4974320;28;20091;-72
2022/09/20 01:09:16;;;;;;;3.38;0.98;;;10.30;99.90;;;;;;4974359;28;20027;-71
2022/09/20 01:11:42;;;;;;;4.75;0.80;;;10.40;99.90;;;;;;4974122;28;20070;-71
2022/09/20 01:14:08;;;;;;;2.08;0.80;;;10.40;99.90;;;;;;4974533;28;20571;-73
2022/09/20 01:16:34;;;;;;;2.67;0.85;;;10.40;99.90;;;;;;4974778;28;20033;-72
2022/09/20 01:19:07;;;;;;;4.20;0.50;;;10.50;99.90;;;;;;4974271;28;20137;-72
2022/09/20 01:21:33;;;;;;;4.88;1.15;;;10.50;99.90;;;;;;4974909;28;20027;-72
2022/09/20 01:24:18;;;;;;;0.35;0.28;;;10.50;99.90;;;;;;4974996;28;20034;-73
2022/09/20 01:26:56;;;;;;;3.15;0.68;;;10.50;99.90;;;;;;4974179;28;20042;-73
2022/09/20 01:29:50;;;;;;;0.55;0.32;;;10.60;99.90;;;;;;4973844;28;20027;-71
2022/09/20 01:32:21;;;;;;;1.05;0.40;;;10.60;99.90;;;;;;4974029;28;20035;-71
2022/09/20 01:34:51;;;;;;;0.73;0.10;;;10.60;99.90;;;;;;4974147;28;20057;-71
2022/09/20 01:37:36;;;;;;;0.70;0.55;;;10.60;99.90;;;;;;4973629;28;20027;-71
2022/09/20 01:40:17;;;;;;;3.90;0.30;;;10.60;99.90;;;;;;4974079;28;20146;-71
2022/09/20 01:42:50;;;;;;;2.17;0.60;;;10.60;99.90;;;;;;4974051;28;20027;-72
2022/09/20 01:45:29;;;;;;;0.57;0.57;;;10.60;99.90;;;;;;4974488;28;20041;-71
2022/09/20 01:48:03;;;;;;;4.00;0.43;;;10.60;99.90;;;;;;4973530;28;20031;-70
2022/09/20 01:50:29;;;;;;;;;;;10.60;99.90;;;;;;4974617;28;20471;-71
2022/09/20 01:53:03;;;;;;;1.10;0.35;;;10.60;99.90;;;;;;4973973;28;19914;-71
2022/09/20 01:56:14;;;;;;;1.38;0.57;;;10.60;99.90;;;;;;4973613;28;20471;-71
2022/09/20 01:59:09;;;;;;;0.93;0.30;;;10.60;99.90;;;;;;4943006;28;20042;-73
2022/09/20 02:01:59;;;;;;;1.52;0.68;;;10.60;99.90;;;;;;4973585;28;20055;-72
2022/09/20 02:04:53;;;;;;;1.63;0.50;;;10.70;99.90;;;;;;4973786;28;20062;-71
2022/09/20 02:07:47;;;;;;;0.32;0.32;;;10.70;99.90;;;;;;4973778;28;20035;-71
2022/09/20 02:10:19;;;;;;;3.88;1.10;;;10.70;99.90;;;;;;4972784;28;20023;-71
2022/09/20 02:13:43;;;;;;;0.52;0.35;;;10.70;99.90;;;;;;4973676;28;20050;-72
2022/09/20 02:16:17;;;;;;;1.15;0.47;;;10.70;99.90;;;;;;4910505;28;20092;-71
2022/09/20 02:19:08;;;;;;;0.70;0.50;;;10.70;99.90;;;;;;4972930;28;20034;-71
2022/09/20 02:21:42;;;;;;;2.55;0.68;;;10.70;99.90;;;;;;4973653;28;20142;-71
2022/09/20 02:24:15;;;;;;;1.27;0.38;;;10.70;99.90;;;;;;4973153;28;20035;-71
2022/09/20 02:26:56;;;;;;;0.55;0.32;;;10.80;99.90;;;;;;4973039;28;20062;-72
2022/09/20 02:29:54;;;;;;;1.35;0.60;;;10.70;99.90;;;;;;4972916;28;20031;-70
2022/09/20 02:32:29;;;;;;;2.75;0.55;;;10.70;99.90;;;;;;4972265;28;20043;-71
2022/09/20 02:35:21;;;;;;;3.47;0.60;;;10.80;99.90;;;;;;4972906;28;20019;-71
2022/09/20 02:38:10;;;;;;;1.90;0.47;;;10.70;99.90;;;;;;4972939;28;20058;-72
2022/09/20 02:40:45;;;;;;;1.92;0.60;;;10.70;99.90;;;;;;4973732;28;20141;-73
2022/09/20 02:43:33;;;;;;;3.88;0.47;;;10.70;99.90;;;;;;4973003;28;20039;-72
2022/09/20 02:46:23;;;;;;;4.50;1.02;;;10.70;99.90;;;;;;4973003;28;20027;-71
2022/09/20 02:49:26;;;;;;;1.50;0.43;;;10.70;99.90;;;;;;4954903;28;20043;-72
2022/09/20 02:52:14;;;;;;;5.20;1.20;;;10.70;99.90;;;;;;4972408;28;20392;-71
2022/09/20 02:55:17;;;;;;;2.35;0.65;;;10.70;99.90;;;;;;4973428;28;20023;-71
2022/09/20 02:58:07;;;;;;;1.63;0.60;;;10.70;99.90;;;;;;4972755;28;20023;-70
2022/09/20 03:00:49;;;;;;;1.15;0.60;;;10.60;99.90;;;;;;4973119;28;20054;-72
2022/09/20 03:03:55;;;;;;;3.58;0.80;;;10.60;99.90;;;;;;4973017;28;20059;-72
2022/09/20 03:06:58;;;;;;;4.05;1.20;;;10.60;99.90;;;;;;4972394;28;20030;-71
2022/09/20 03:09:37;;;;;;;4.43;0.90;;;10.50;99.90;;;;;;4973162;28;20034;-71
2022/09/20 03:12:06;;;;;;;3.45;1.23;;;10.50;99.90;;;;;;4972247;28;20055;-71
2022/09/20 03:15:05;;;;;;;2.22;1.02;;;10.40;99.90;;;;;;4972804;28;20087;-71
2022/09/20 03:17:50;;;;;;;5.25;1.60;;;10.50;99.90;;;;;;4959893;28;20043;-72
2022/09/20 03:20:45;;;;;;;17.52;1.48;;;10.40;99.90;;;;;;4964317;28;20039;-73
2022/09/20 03:23:42;;;;;;;5.20;1.50;;;10.40;99.90;;;;;;4972664;28;20042;-71
2022/09/20 03:26:19;;;;;;;10.98;1.38;;;10.40;99.90;;;;;;4972257;28;20031;-71
2022/09/20 03:28:58;;;;;;;7.80;1.48;;;10.30;99.90;;;;;;4972780;28;20019;-73
2022/09/20 03:31:53;;;;;;;2.45;1.33;;;10.30;99.90;;;;;;4972307;28;20150;-71
2022/09/20 03:34:51;;;;;;;8.70;1.40;;;10.30;99.90;;;;;;4972057;28;20027;-71
2022/09/20 03:37:39;;;;;;;3.00;1.42;;;10.20;99.90;;;;;;4972675;28;20027;-72
2022/09/20 03:40:14;;;;;;;2.38;1.08;;;10.20;99.90;;;;;;4972504;28;20035;-71
2022/09/20 03:42:47;;;;;;;5.32;1.45;;;10.20;99.90;;;;;;4970507;28;20039;-72
2022/09/20 03:45:31;;;;;;;4.28;1.38;;;10.10;99.90;;;;;;4973459;28;20086;-71
2022/09/20 03:48:15;;;;;;;3.30;1.30;;;10.10;99.90;;;;;;4972267;28;20031;-71
2022/09/20 03:51:05;;;;;;;5.65;1.33;;;10.10;99.90;;;;;;4972818;28;20087;-72
2022/09/20 03:54:09;;;;;;;7.57;1.25;;;10.00;99.90;;;;;;4972198;28;20372;-70
2022/09/20 03:56:51;;;;;;;11.32;1.58;;;10.00;99.90;;;;;;4972355;28;20112;-71
2022/09/20 03:59:17;;;;;;;4.15;1.60;;;10.00;99.90;;;;;;4973526;28;20031;-70
2022/09/20 04:02:04;;;;;;;5.10;1.42;;;10.00;99.90;;;;;;4975973;28;20007;-72
2022/09/20 04:04:39;;;;;;;2.70;1.23;;;10.00;99.90;;;;;;4976320;28;20057;-71
2022/09/20 04:07:34;;;;;;;1.83;1.10;;;10.00;99.90;;;;;;4975856;28;20023;-71
2022/09/20 04:10:24;;;;;;;7.65;1.38;;;9.90;99.90;;;;;;4974884;28;20031;-72
2022/09/20 04:13:11;;;;;;;4.47;1.38;;;9.90;99.90;;;;;;4974964;28;20044;-71
2022/09/20 04:15:58;;;;;;;7.30;1.45;;;9.80;99.90;;;;;;4975810;28;20034;-73
2022/09/20 04:18:41;;;;;;;7.07;1.83;;;9.80;99.90;;;;;;4975249;28;20027;-71
2022/09/20 04:21:26;;;;;;;8.13;1.92;;;9.80;99.90;;;;;;4975707;28;20043;-73
2022/09/20 04:24:16;;;;;;;6.75;1.58;;;9.80;99.90;;;;;;4975315;28;20019;-72
2022/09/20 04:26:48;;;;;;;10.15;1.40;;;9.80;99.90;;;;;;4974990;28;20091;-71
2022/09/20 04:29:25;;;;;;;11.82;1.48;;;9.70;99.90;;;;;;4975886;28;20030;-71
2022/09/20 04:32:11;;;;;;;4.93;1.63;;;9.70;99.90;;;;;;4975365;28;20443;-71
2022/09/20 04:37:43;;;;;;;2.15;0.80;;;9.70;99.90;;;;;;4975310;28;20045;-69
2022/09/20 04:40:33;;;;;;;10.02;2.13;;;9.70;99.90;;;;;;4974891;28;20034;-71
2022/09/20 04:43:31;;;;;;;4.90;2.05;;;9.60;99.90;;;;;;4974944;28;20115;-70
2022/09/20 04:46:15;;;;;;;4.13;1.48;;;9.70;99.90;;;;;;4975057;28;20039;-71
2022/09/20 04:49:09;;;;;;;5.35;1.27;;;9.60;99.90;;;;;;4957882;28;20523;-71
2022/09/20 04:51:58;;;;;;;3.58;1.25;;;9.70;99.90;;;;;;4975015;28;20182;-71
2022/09/20 04:54:54;;;;;;;6.45;1.55;;;9.60;99.90;;;;;;4975012;28;20103;-71
2022/09/20 04:57:41;;;;;;;16.55;2.25;;;9.70;99.90;;;;;;4974803;28;20031;-72
2022/09/20 05:00:23;;;;;;;2.25;1.27;;;9.70;99.90;;;;;;4957641;28;20035;-72
2022/09/20 05:03:01;;;;;;;6.07;1.38;;;9.70;99.90;;;;;;4974845;28;20020;-70
2022/09/20 05:05:46;;;;;;;6.25;1.40;;;9.70;99.90;;;;;;4974697;28;20035;-71
2022/09/20 05:08:39;;;;;;;11.50;2.38;;;9.80;99.90;;;;;;4975127;28;20062;-71
2022/09/20 05:11:25;;;;;;;6.55;1.45;;;9.80;99.90;;;;;;4974331;28;20023;-74
2022/09/20 05:14:33;;;;;;;14.40;1.58;;;9.90;99.90;;;;;;4935276;29;20043;-74
2022/09/20 05:17:05;;;;;;;3.45;1.38;;;9.90;99.90;;;;;;4934738;29;20227;-74
2022/09/20 05:19:36;;;;;;;5.53;1.65;;;9.90;99.90;;;;;;4933802;29;20050;-72
2022/09/20 05:22:40;;;;;;;12.68;1.15;;;10.00;99.90;;;;;;4937299;28;20048;-72
2022/09/20 05:25:21;;;;;;;3.97;1.38;;;10.00;99.90;;;;;;4936827;29;20027;-72
2022/09/20 05:28:02;;;;;;;8.75;1.00;;;10.00;99.90;;;;;;4935357;29;20091;-73
2022/09/20 05:30:44;;;;;;;5.82;1.48;;;10.10;99.90;;;;;;4933205;29;20482;-73
2022/09/20 05:33:19;;;;;;;4.50;1.25;;;10.10;99.90;;;;;;4936017;29;20043;-74
2022/09/20 05:35:53;;;;;;;8.60;1.00;;;10.10;99.90;;;;;;4935094;29;20054;-75
2022/09/20 05:38:46;;;;;;;5.03;0.90;;;10.20;99.90;;;;;;4935715;29;20027;-74
2022/09/20 05:41:34;;;;;;;7.32;1.25;;;10.20;99.90;;;;;;4935565;29;20028;-74
2022/09/20 05:44:24;;;;;;;2.75;1.20;;;10.20;99.90;;;;;;4935290;29;20035;-73
2022/09/20 05:47:30;;;;;;;2.63;1.05;;;10.30;99.90;;;;;;4935710;29;20027;-72
2022/09/20 05:50:26;;;;;;;5.90;1.52;;;10.30;99.90;;;;;;4936010;29;20023;-75
2022/09/20 05:53:30;;;;;;;4.05;1.70;;;10.30;99.90;;;;;;4935481;29;20036;-73
2022/09/20 05:56:21;;;;;;;3.95;1.00;;;10.30;99.90;;;;;;4935606;29;20040;-74
2022/09/20 05:59:20;;;;;;;4.82;1.55;;;10.30;99.90;;;;;;4935806;29;20036;-74
2022/09/20 06:02:08;;;;;;;6.28;1.85;;;10.30;99.90;;;;;;4927397;29;20115;-72
2022/09/20 06:05:00;;;;;;;4.85;1.60;;;10.30;99.90;;;;;;4933921;29;20028;-73
2022/09/20 06:07:54;;;;;;;4.10;1.20;;;10.40;99.90;;;;;;4934304;29;20042;-75
2022/09/20 06:10:29;;;;;;;6.57;1.10;;;10.40;99.90;;;;;;4934480;29;20493;-75
2022/09/20 06:13:19;;;;;;;11.50;1.40;;;10.30;99.90;;;;;;4961137;28;20073;-74
2022/09/20 06:15:56;;;;;;;9.98;1.10;;;10.40;99.90;;;;;;4974215;28;20185;-74
2022/09/20 06:18:28;;;;;;;4.32;1.08;;;10.40;99.90;;;;;;4973764;28;20115;-75
2022/09/20 06:21:13;;;;;;;5.35;1.00;;;10.40;99.90;;;;;;4980314;28;20029;-74
2022/09/20 06:23:39;;;;;;;3.38;1.42;;;10.40;99.90;;;;;;4973775;28;20106;-75
2022/09/20 06:26:26;;;;;;;3.80;1.13;;;10.40;99.90;;;;;;4973993;28;20027;-74
2022/09/20 06:29:01;;;;;;;3.38;1.45;;;10.50;99.90;;;;;;4973419;28;20045;-73
2022/09/20 06:31:27;;;;;;;6.38;1.83;;;10.60;99.90;;;;;;4955540;28;20031;-74
2022/09/20 06:34:01;;;;;;;4.00;1.20;;;10.60;99.90;;;;;;4973636;28;20035;-75
2022/09/20 06:42:37;;;;;;;10.63;1.35;;;10.70;99.90;;;;;;4972505;28;20061;-74
2022/09/20 06:45:04;;;;;;;6.78;1.35;;;10.80;99.90;;;;;;4972068;28;20027;-73
2022/09/20 06:47:29;;;;;;;11.15;1.60;;;10.80;99.90;;;;;;4973246;28;20035;-73
2022/09/20 06:49:55;;;;;;;4.05;1.52;;;10.80;99.90;;;;;;4971957;28;20035;-74
2022/09/20 06:52:21;;;;;;;13.60;1.73;;;10.80;99.90;;;;;;4969613;28;20047;-74
2022/09/20 06:54:50;;;;;;;3.55;1.88;;;10.90;99.90;;;;;;4967244;28;20041;-74
2022/09/20 06:57:20;;;;;;;5.25;1.77;;;10.90;99.90;;;;;;4970245;28;20039;-75
2022/09/20 06:59:45;;;;;;;4.40;1.40;;;10.90;99.90;;;;;;4967311;28;20073;-75
2022/09/20 07:02:11;;;;;;;11.00;1.10;;;10.90;99.90;;;;;;4970510;28;20423;-74
2022/09/20 07:04:37;;;;;;;2.45;1.33;;;11.00;99.90;;;;;;4954887;28;20023;-74
2022/09/20 07:07:05;;;;;;;7.80;1.67;;;11.00;99.90;;;;;;4972849;28;20023;-74
2022/09/20 07:09:30;;;;;;;3.33;1.35;;;11.00;99.90;;;;;;4972607;28;20039;-74
2022/09/20 07:11:58;;;;;;;4.20;1.52;;;11.10;99.90;;;;;;4971816;28;20055;-75
2022/09/20 07:14:27;;;;;;;7.50;2.22;;;11.10;99.90;;;;;;4972690;28;20029;-75
2022/09/20 07:16:53;;;;;;;4.90;2.13;;;11.10;99.90;;;;;;4972229;28;20019;-74
2022/09/20 07:19:18;;;;;;;8.68;1.52;;;11.00;99.90;;;;;;4954412;28;20122;-74
2022/09/20 07:21:44;;;;;;;11.98;1.92;;;11.00;99.90;;;;;;4971898;28;20064;-75
2022/09/20 07:24:10;;;;;;;8.20;1.30;;;11.00;99.90;;;;;;4972637;28;20167;-74
2022/09/20 07:26:37;;;;;;;6.88;1.52;;;11.00;99.90;;;;;;4971944;28;20094;-76
2022/09/20 07:29:05;;;;;;;12.40;1.33;;;11.10;99.90;;;;;;4973343;28;20027;-74
2022/09/20 07:31:31;;;;;;;1.40;1.15;;;11.10;99.90;;;;;;4972600;28;21490;-75
2022/09/20 07:33:57;;;;;;;3.42;1.38;;;11.10;99.90;;;;;;4973107;28;20062;-75
2022/09/20 07:36:23;;;;;;;2.63;1.25;;;11.20;99.90;;;;;;4976737;28;20435;-74
2022/09/20 07:38:51;;;;;;;3.28;1.48;;;11.30;99.90;;;;;;4973894;28;20030;-75
2022/09/20 07:41:17;;;;;;;2.20;1.20;;;11.40;99.90;;;;;;4958870;28;20039;-74
2022/09/20 07:43:44;;;;;;;5.90;1.55;;;11.50;99.90;;;;;;4976261;28;20030;-75
2022/09/20 07:46:12;;;;;;;10.63;1.88;;;11.50;99.90;;;;;;4959095;28;20029;-75
2022/09/20 07:48:39;;;;;;;1.67;0.90;;;11.60;99.90;;;;;;4975568;28;20027;-74
2022/09/20 07:51:10;;;;;;;8.48;1.42;;;11.70;99.90;;;;;;4976325;28;20053;-74
2022/09/20 07:53:37;;;;;;;11.60;1.08;;;11.70;99.90;;;;;;4975265;28;20046;-75
2022/09/20 07:56:05;;;;;;;1.50;0.82;;;11.80;99.90;;;;;;4976315;28;20021;-74
2022/09/20 07:58:32;;;;;;;10.27;1.23;;;11.90;99.90;;;;;;4974690;28;20035;-74
2022/09/20 08:01:01;;;;;;;1.83;1.10;;;11.90;99.90;;;;;;4975921;28;20031;-73
2022/09/20 08:03:30;;;;;;;8.23;1.63;;;11.90;99.90;;;;;;4968400;28;20058;-75
2022/09/20 08:06:04;;;;;;;5.63;1.17;;;11.80;99.90;;;;;;4975007;28;20028;-74
2022/09/20 08:08:35;;;;;;;10.60;1.90;;;11.80;99.90;;;;;;4974936;28;20411;-73
2022/09/20 08:11:07;;;;;;;7.22;1.30;;;11.80;99.90;;;;;;4955188;28;20285;-74
2022/09/20 08:13:40;;;;;;;3.03;1.55;;;11.80;99.90;;;;;;4971535;28;20063;-74
2022/09/20 08:16:10;;;;;;;4.78;1.10;;;11.90;99.90;;;;;;4978332;28;20162;-74
2022/09/20 08:18:36;;;;;;;6.97;1.70;;;11.90;99.90;;;;;;4970554;28;20126;-74
2022/09/20 08:21:10;;;;;;;11.30;1.35;;;12.10;99.90;;;;;;4955685;28;20015;-74
2022/09/20 08:23:43;;;;;;;5.63;1.40;;;12.20;99.90;;;;;;4974913;28;20019;-75
2022/09/20 08:26:12;;;;;;;6.30;1.23;;;12.30;99.90;;;;;;4974320;28;20090;-74
2022/09/20 08:28:39;;;;;;;9.00;1.42;;;12.40;99.90;;;;;;4974863;28;20460;-74
2022/09/20 08:31:15;;;;;;;8.63;1.75;;;12.60;99.90;;;;;;4974476;28;20027;-73
2022/09/20 08:33:42;;;;;;;8.25;1.05;;;12.70;99.90;;;;;;4974497;28;20031;-73
2022/09/20 08:36:13;;;;;;;7.88;1.15;;;12.80;99.90;;;;;;4974588;28;20023;-75
2022/09/20 08:38:39;;;;;;;15.70;1.73;;;13.00;99.90;;;;;;4974544;28;20042;-74
2022/09/20 08:41:24;;;;;;;3.58;1.02;;;13.00;99.90;;;;;;4974264;28;20077;-74
2022/09/20 08:43:55;;;;;;;6.15;1.35;;;13.10;99.90;;;;;;4974989;28;20104;-73
2022/09/20 08:46:29;;;;;;;4.50;1.38;;;13.40;99.90;;;;;;4974030;28;20034;-75
2022/09/20 08:48:56;;;;;;;2.58;0.70;;;13.60;99.90;;;;;;4974131;28;20034;-75
2022/09/20 08:51:29;;;;;;;6.10;1.13;;;13.70;99.90;;;;;;4974818;28;20027;-74
2022/09/20 08:53:56;;;;;;;2.25;1.05;;;13.80;99.90;;;;;;4974458;28;20039;-73
2022/09/20 08:56:28;;;;;;;3.88;1.17;;;14.00;99.90;;;;;;4973921;28;20031;-73
2022/09/20 08:58:58;;;;;;;4.75;0.90;;;13.90;99.90;;;;;;4973634;28;20035;-74
2022/09/20 09:01:28;;;;;;;10.82;1.13;;;14.00;99.90;;;;;;4971092;28;20023;-72
2022/09/20 09:04:18;;;;;;;1.45;0.77;;;14.00;99.90;;;;;;4974582;28;20062;-72
2022/09/20 09:06:44;;;;;;;5.32;0.98;;;14.00;99.90;;;;;;4975508;28;20034;-74
2022/09/20 09:09:23;;;;;;;2.35;0.75;;;14.00;99.90;;;;;;4974526;28;20082;-74
2022/09/20 09:11:50;;;;;;;2.35;1.13;;;13.90;99.90;;;;;;4980944;28;20148;-73
2022/09/20 09:14:47;;;;;;;2.55;0.73;;;13.90;99.90;;;;;;4956533;28;20034;-74
2022/09/20 09:17:16;;;;;;;7.57;1.02;;;13.80;99.90;;;;;;4973952;28;20027;-73
2022/09/20 09:19:54;;;;;;;2.55;0.70;;;13.40;99.90;;;;;;4972332;28;20503;-73
2022/09/20 09:22:38;;;;;;;6.00;0.40;;;13.00;99.90;;;;;;4973943;28;20034;-73
2022/09/20 09:25:16;;;;;;;3.13;0.70;;;12.60;99.90;;;;;;4973569;28;20031;-73
2022/09/20 09:27:57;;;;;;;0.50;0.50;;;12.20;99.90;;;;;;4965068;28;20035;-73
2022/09/20 09:30:39;;;;;;;5.55;0.75;;;12.00;99.90;;;;;;4974027;28;20039;-76
2022/09/20 09:33:32;;;;;;;1.15;0.45;;;11.80;99.90;;;;;;4954483;28;20133;-75
2022/09/20 09:36:02;;;;;;;0.77;0.47;;;11.70;99.90;;;;;;4967028;28;20035;-74
2022/09/20 09:38:30;;;;;;;0.82;0.52;;;11.50;99.90;;;;;;4970746;28;20027;-79
2022/09/20 09:41:07;;;;;;;2.45;0.47;;;11.40;99.90;;;;;;4972234;28;20090;-76
2022/09/20 09:43:39;;;;;;;2.90;0.45;;;11.30;99.90;;;;;;4973373;28;20154;-74
2022/09/20 09:46:17;;;;;;;1.67;0.55;;;11.20;99.90;;;;;;4973206;28;20655;-74
2022/09/20 09:48:48;;;;;;;1.42;0.60;;;11.20;99.90;;;;;;4956482;28;20037;-75
2022/09/20 09:51:19;;;;;;;2.95;0.63;;;11.20;99.90;;;;;;4973724;28;20057;-74
2022/09/20 09:53:48;;;;;;;0.50;0.30;;;11.30;99.90;;;;;;4972858;28;20121;-73
2022/09/20 09:57:00;;;;;;;1.13;0.63;;;11.20;99.90;;;;;;4973066;28;20026;-73
2022/09/20 09:59:57;;;;;;;0.20;0.20;;;11.20;99.90;;;;;;4911739;28;20037;-73
2022/09/20 10:02:41;;;;;;;3.70;0.60;;;11.20;99.90;;;;;;4973681;28;20435;-72
2022/09/20 10:05:21;;;;;;;2.30;0.57;;;11.30;99.90;;;;;;4972595;28;20400;-73
2022/09/20 10:08:28;;;;;;;3.70;0.40;;;11.50;99.90;;;;;;4972305;28;20038;-73
2022/09/20 10:11:02;;;;;;;0.60;0.45;;;11.70;99.90;;;;;;4973528;28;20029;-74
2022/09/20 10:13:43;;;;;;;2.97;0.68;;;11.90;99.90;;;;;;4952218;29;20177;-75
2022/09/20 10:16:50;;;;;;;1.90;0.60;;;12.10;99.90;;;;;;4954187;29;20039;-75
2022/09/20 10:19:15;;;;;;;3.90;0.75;;;12.40;99.90;;;;;;4932332;29;20119;-75
2022/09/20 10:21:52;;;;;;;2.50;0.50;;;12.50;99.90;;;;;;4932638;29;20181;-74
2022/09/20 10:24:33;;;;;;;1.60;0.82;;;12.60;99.90;;;;;;4943529;29;20047;-75
2022/09/20 10:27:18;;;;;;;2.03;0.77;;;12.60;99.90;;;;;;4952565;29;20498;-74
2022/09/20 10:29:57;;;;;;;1.52;0.60;;;12.80;99.90;;;;;;4953285;29;20027;-75
2022/09/20 10:32:38;;;;;;;6.50;0.45;;;12.90;99.90;;;;;;4952909;29;20142;-75
2022/09/20 10:35:42;;;;;;;7.50;0.55;;;13.00;99.90;;;;;;4951868;29;20847;-77
2022/09/20 10:38:14;;;;;;;1.08;0.20;;;13.10;99.90;;;;;;4950615;28;20035;-76
2022/09/20 10:44:03;;;;;;;6.75;0.70;;;13.20;99.90;;;;;;4953411;29;20082;-77
2022/09/20 10:46:43;;;;;;;0.50;0.30;;;13.30;99.90;;;;;;4953262;29;20747;-74
2022/09/20 10:49:25;;;;;;;7.93;0.88;;;13.40;99.90;;;;;;4953399;29;20031;-75
2022/09/20 10:52:21;;;;;;;2.05;0.40;;;13.60;99.90;;;;;;4950544;29;20132;-75
2022/09/20 10:55:03;;;;;;;1.10;0.30;;;13.70;99.90;;;;;;4953523;29;20122;-74
2022/09/20 10:57:32;;;;;;;0.93;0.40;;;13.60;99.90;;;;;;4953527;29;20527;-75
2022/09/20 11:00:10;;;;;;;1.08;0.75;;;13.60;99.90;;;;;;4949971;29;20328;-75
2022/09/20 11:03:00;;;;;;;2.00;0.50;;;13.60;99.90;;;;;;4950505;29;20526;-75
2022/09/20 11:05:34;;;;;;;1.45;0.65;;;13.50;99.90;;;;;;4952571;29;20031;-76
2022/09/20 11:08:14;;;;;;;1.80;0.28;;;13.60;99.90;;;;;;4965415;28;20027;-76
2022/09/20 11:10:50;;;;;;;3.38;0.70;;;13.70;99.90;;;;;;4951107;29;20032;-73
2022/09/20 11:13:21;;;;;;;1.52;0.50;;;13.80;99.90;;;;;;4950057;29;20141;-74
2022/09/20 11:16:24;;;;;;;1.38;0.52;;;13.80;99.90;;;;;;4949780;29;20042;-73
2022/09/20 11:18:58;;;;;;;0.85;0.60;;;13.90;99.90;;;;;;4948920;29;20492;-75
2022/09/20 11:21:58;;;;;;;0.28;0.28;;;13.90;99.90;;;;;;4952072;29;20102;-72
2022/09/20 11:24:34;;;;;;;0.75;0.55;;;14.00;99.90;;;;;;4951072;28;20063;-74
2022/09/20 11:27:21;;;;;;;4.00;0.68;;;14.00;99.90;;;;;;4949497;29;20034;-73
2022/09/20 11:30:02;;;;;;;3.58;0.77;;;14.10;99.90;;;;;;4950927;29;20032;-73
2022/09/20 11:32:38;;;;;;;2.20;0.55;;;14.40;99.90;;;;;;4951554;29;20075;-74
2022/09/20 11:35:09;;;;;;;1.08;0.52;;;14.60;99.90;;;;;;4951908;29;21005;-72
2022/09/20 11:37:38;;;;;;;0.40;0.20;;;14.90;99.90;;;;;;4950828;29;20105;-74
2022/09/20 11:40:26;;;;;;;2.22;0.30;;;15.20;99.90;;;;;;4951063;29;20020;-74
2022/09/20 11:42:54;;;;;;;1.65;0.55;;;15.30;99.90;;;;;;4950536;29;20476;-72
2022/09/20 11:45:21;;;;;;;0.40;0.30;;;15.40;99.90;;;;;;4951125;29;20027;-72
2022/09/20 11:47:59;;;;;;;1.42;0.50;;;15.60;99.90;;;;;;4951314;29;21139;-74
2022/09/20 11:50:31;;;;;;;1.88;0.80;;;15.50;99.90;;;;;;4952091;29;20038;-72
2022/09/20 11:53:28;;;;;;;1.10;0.40;;;15.50;99.90;;;;;;4949343;29;20099;-74
2022/09/20 11:56:19;;;;;;;9.05;0.88;;;15.40;99.90;;;;;;4952055;29;20078;-74
2022/09/20 11:58:47;;;;;;;2.20;0.73;;;15.50;99.90;;;;;;4951845;29;20024;-73
2022/09/20 12:01:16;;;;;;;0.38;0.13;;;15.70;99.90;;;;;;4951791;29;20472;-73
2022/09/20 12:03:48;;;;;;;2.13;0.52;;;15.90;99.90;;;;;;4951126;29;20055;-73
2022/09/20 12:06:44;;;;;;;1.15;0.40;;;16.00;99.90;;;;;;4949050;29;20050;-73
2022/09/20 12:09:29;;;;;;;1.58;0.60;;;16.10;99.90;;;;;;4945864;29;20046;-74
2022/09/20 12:11:58;;;;;;;4.40;0.75;;;16.20;99.90;;;;;;4954142;28;20051;-75
2022/09/20 12:14:26;;;;;;;1.95;0.43;;;16.30;99.90;;;;;;4968257;28;20019;-75
2022/09/20 12:16:53;;;;;;;1.45;0.60;;;16.40;99.90;;;;;;4953351;28;20039;-73
2022/09/20 12:19:35;;;;;;;1.25;0.52;;;16.50;99.90;;;;;;4951269;28;20089;-76
2022/09/20 12:22:01;;;;;;;2.15;0.40;;;16.50;99.90;;;;;;4972693;28;20118;-75
2022/09/20 12:24:32;;;;;;;2.10;0.70;;;16.50;99.90;;;;;;4974980;28;20073;-72
2022/09/20 12:27:00;;;;;;;1.75;0.38;;;16.60;99.90;;;;;;4974135;28;20032;-75
2022/09/20 12:29:25;;;;;;;1.80;0.70;;;16.90;99.90;;;;;;4973555;28;20108;-75
2022/09/20 12:31:53;;;;;;;2.80;0.70;;;17.10;99.90;;;;;;4956902;28;20215;-74
2022/09/20 12:34:19;;;;;;;0.75;0.50;;;17.30;99.90;;;;;;4973680;28;20027;-73
2022/09/20 12:37:09;;;;;;;9.57;1.00;;;17.50;99.90;;;;;;4974118;28;20050;-74
2022/09/20 12:39:48;;;;;;;2.70;0.32;;;17.70;99.90;;;;;;4972632;28;20067;-73
2022/09/20 12:42:17;;;;;;;3.80;0.50;;;17.70;99.90;;;;;;4973200;28;20039;-74
2022/09/20 12:44:48;;;;;;;1.63;0.60;;;17.70;99.90;;;;;;4974353;28;20440;-74
2022/09/20 12:47:27;;;;;;;4.72;1.08;;;17.80;99.90;;;;;;4974642;28;20031;-74
2022/09/20 12:52:49;;;;;;;2.40;0.57;;;17.70;99.90;;;;;;4973082;28;20074;-73
2022/09/20 12:55:31;;;;;;;3.83;1.02;;;17.70;99.90;;;;;;4974401;28;20031;-73
2022/09/20 12:58:01;;;;;;;0.32;0.30;;;17.90;99.90;;;;;;4971651;28;20487;-72
2022/09/20 13:00:48;;;;;;;0.98;0.40;;;17.80;99.90;;;;;;4974038;28;20035;-73
2022/09/20 13:03:14;;;;;;;4.78;0.75;;;17.80;99.90;;;;;;4972327;28;20058;-72
2022/09/20 13:05:44;;;;;;;1.65;0.45;;;18.00;99.90;;;;;;4963813;28;20035;-71
2022/09/20 13:08:30;;;;;;;1.42;0.50;;;18.00;99.90;;;;;;4971865;28;20890;-75
2022/09/20 13:11:00;;;;;;;5.07;0.47;;;17.90;99.90;;;;;;4972453;28;20133;-72
2022/09/20 13:13:40;;;;;;;1.80;0.77;;;17.70;99.90;;;;;;4955290;28;20062;-71
2022/09/20 13:16:12;;;;;;;1.85;0.82;;;17.50;99.90;;;;;;4975423;28;20136;-71
2022/09/20 13:18:40;;;;;;;1.05;0.50;;;17.30;99.90;;;;;;4974470;28;20037;-74
2022/09/20 13:21:07;;;;;;;2.72;0.80;;;17.10;99.90;;;;;;4974328;28;20065;-72
2022/09/20 13:23:45;;;;;;;2.53;0.82;;;16.90;99.90;;;;;;4975311;28;20031;-71
2022/09/20 13:26:13;;;;;;;3.65;0.60;;;16.60;99.90;;;;;;4974250;28;20024;-71
2022/09/20 13:28:50;;;;;;;2.20;0.50;;;16.40;99.90;;;;;;4974021;28;20034;-73
2022/09/20 13:31:26;;;;;;;1.63;0.70;;;16.20;99.90;;;;;;4973089;28;20079;-71
2022/09/20 13:33:52;;;;;;;2.30;0.80;;;16.10;99.90;;;;;;4973160;28;20090;-72
2022/09/20 13:36:27;;;;;;;1.58;0.52;;;16.20;99.90;;;;;;4973689;28;20095;-73
2022/09/20 13:38:55;;;;;;;2.45;0.75;;;16.90;99.90;;;;;;4973822;28;20158;-72
2022/09/20 13:41:22;;;;;;;4.60;0.70;;;17.60;99.90;;;;;;4973586;28;20061;-72
2022/09/20 13:43:49;;;;;;;1.10;0.60;;;18.40;99.90;;;;;;4973661;28;20031;-71
2022/09/20 13:46:27;;;;;;;2.92;0.63;;;18.90;99.90;;;;;;4973244;28;20585;-72
2022/09/20 13:49:11;;;;;;;2.50;0.80;;;19.50;99.90;;;;;;4973226;28;20031;-72
2022/09/20 13:51:36;;;;;;;1.48;0.45;;;20.10;99.90;;;;;;4969965;28;20026;-72
2022/09/20 13:54:23;;;;;;;2.75;1.10;;;20.50;99.90;;;;;;4972329;28;20074;-73
2022/09/20 13:56:50;;;;;;;3.45;0.45;;;20.80;99.90;;;;;;4972054;28;20023;-70
2022/09/20 13:59:16;;;;;;;3.67;0.75;;;20.90;99.90;;;;;;4972627;28;20031;-72